x

9444090 - Port Angeles, Wa (ptaw1) Weather Station

11:30 - Fri 12th Feb 2016 All times are PST. -8 hours from GMT.

  • Wind
    5mph, 11mph gusts
  • Sea Temp 48°f
  • Air Temp 47°f
  • Sea Pressure 1020.7mb
  • 9444090 - Port Angeles, Wa
  • 9444090 - Port Angeles, Wa

More Historic Weather Station data

Upgrade to MSW Pro to gain access to the past 30 days of data for over 8000 Wavebouys and Weather Stations around the globe.

Join Pro

Comparision Forecast

View Surf forecast
   
ven. 02/12 11:30 5 11 mph 1020.7mb 48f 47f
11:24 6 9 mph 1020.6mb 48f 47f
11:18 5 7 mph 1020.8mb 48f 46f
11:12 3 8 mph 1020.7mb 48f 46f
11:06 6 7 mph 1020.6mb 48f 46f
11:00 5 6 mph 1020.5mb 48f 46f
10:36  -  2 mph 1020.1mb 48f 46f
10:30 3 5 mph 1020.1mb 48f 45f
10:24 2 3 mph 1020.1mb 48f 46f
10:18 2 6 mph 1019.9mb 48f 47f
10:12 3 5 mph 1019.8mb 48f 45f
10:06  -  2 mph 1019.7mb 48f 46f
10:00 1 2 mph 1019.6mb 48f 45f
9:36 3 6 mph 1019.6mb 48f 45f
9:30 1 3 mph 1019.6mb 48f 45f
9:24 3 6 mph 1019.7mb 48f 46f
9:18 6 7 mph - - -
9:12 6 8 mph 1019.9mb 48f 46f
9:06 2 7 mph 1019.9mb 48f 46f
9:00 6 7 mph - - -
8:36 5 6 mph 1020.1mb 48f 45f
8:30 1 2 mph 1020mb 48f 46f
8:24  -  2 mph 1020mb 48f 46f
8:18 3 6 mph 1019.9mb 48f 46f
8:12 3 6 mph 1019.8mb 48f 46f
8:06 2 5 mph 1019.8mb 48f 46f
8:00 2 3 mph 1019.8mb 48f 46f
7:36 5 7 mph 1019.8mb 48f 47f
7:30 3 5 mph 1019.8mb 48f 47f
7:24 5 6 mph 1019.8mb 48f 48f
7:18 5 7 mph 1019.8mb 48f 48f
7:12 5 6 mph 1019.8mb 48f 48f
7:06 5 6 mph 1019.7mb 48f 48f
7:00 3 6 mph 1019.7mb 48f 49f
6:36  -  mph 1019.7mb 48f 49f
6:30  -  mph 1019.6mb 48f 49f
6:24  -  mph 1019.6mb 48f 49f
6:18  -  mph 1019.6mb 48f 49f
6:12  -  mph 1019.4mb 48f 50f
6:06  -  mph 1019.4mb 48f 50f
6:00  -  mph 1019.4mb 48f 50f
5:36 5 6 mph 1019.5mb 48f 50f
5:30 5 7 mph 1019.5mb 48f 50f
5:24 3 5 mph 1019.4mb 48f 51f
5:18 3 7 mph 1019.4mb 48f 51f
5:12 5 7 mph 1019.5mb 48f 50f
5:06 3 5 mph 1019.4mb 48f 50f
5:00 1 2 mph 1019.4mb 48f 50f
4:36 2 5 mph 1019.4mb 48f 50f
4:30 6 7 mph 1019.3mb 48f 50f
4:24 6 9 mph 1019.2mb 48f 50f
4:18 6 11 mph 1019.2mb 48f 51f
4:12 10 14 mph 1019.1mb 48f 51f
4:06 7 10 mph 1019.1mb 48f 52f
4:00 8 9 mph 1019mb 48f 52f
3:36 3 6 mph 1018.8mb 48f 55f
3:30 5 6 mph 1018.7mb 48f 54f
3:24 5 7 mph 1018.7mb 48f 54f
3:18 1 6 mph 1018.7mb 48f 54f
3:12 5 9 mph 1018.7mb 48f 53f
3:06 7 11 mph 1018.7mb 48f 53f
3:00 9 11 mph 1018.7mb 48f 53f
2:36 9 15 mph 1018.5mb 48f 52f
2:30 7 11 mph 1018.3mb 48f 52f
2:24 7 10 mph 1018.5mb 48f 52f
2:18 6 10 mph 1018.4mb 48f 52f
2:12 10 13 mph 1018.4mb 48f 53f
2:06 2 7 mph 1018.4mb 48f 53f
2:00 5 7 mph 1018.5mb 48f 53f
1:36 3 5 mph 1018.3mb 48f 53f
1:30 6 8 mph 1018.2mb 48f 53f
1:24 2 7 mph 1018.2mb 48f 53f
1:18 3 11 mph 1018.2mb 48f 52f
1:12 10 15 mph 1018mb 48f 52f
1:06 14 17 mph 1017.9mb 48f 52f
1:00 17 22 mph 1017.7mb 48f 52f
12:36 16 18 mph 1017.9mb 48f 52f
12:30 15 18 mph 1017.8mb 48f 52f
12:24 13 15 mph 1017.9mb 48f 51f
12:18 9 11 mph 1018mb 48f 51f
12:12 7 10 mph 1018.1mb 48f 52f
12:06 7 11 mph 1018mb 48f 52f
12:00 7 9 mph 1018mb 48f 52f
11:36 8 10 mph 1017.9mb 48f 51f
11:30 6 7 mph 1017.7mb 48f 51f
11:24 6 9 mph 1017.8mb 48f 50f
11:18 9 11 mph 1017.7mb 48f 50f
11:12 7 10 mph 1017.7mb 48f 50f
11:06 10 16 mph 1017.8mb 48f 50f
11:00 14 20 mph 1017.7mb 48f 50f
10:36 2 5 mph 1017.7mb 48f 49f
10:30 2 6 mph 1017.9mb 48f 49f
10:24 2 3 mph 1017.6mb 48f 49f
10:18 2 7 mph 1017.4mb 48f 50f
10:12 6 7 mph 1017.7mb 48f 49f
10:06 3 6 mph 1018.2mb 48f 49f
10:00 5 6 mph 1018.3mb 48f 49f
9:36 3 5 mph 1017.5mb 48f 49f
9:30 5 6 mph 1017mb 48f 49f
9:24 2 5 mph 1017.5mb 48f 48f
9:18 1 5 mph 1017.3mb 48f 48f
9:12 3 6 mph 1017mb 48f 48f
9:06 3 5 mph 1016.8mb 48f 48f
9:00 3 5 mph 1016.6mb 48f 48f
8:36 3 6 mph 1016.4mb 48f 48f
8:30 6 7 mph 1016.6mb 48f 48f
8:24 3 6 mph 1016.7mb 48f 48f
8:18 5 7 mph 1016.8mb 48f 48f
8:12 5 6 mph 1016.7mb 48f 48f
8:06 3 6 mph 1016.6mb 48f 48f
8:00 3
mph
1016.7mb 48f 48f
7:36 3 7 mph 1017.1mb 48f 47f
7:30 8 11 mph 1016.6mb 48f 47f
7:24 10 13 mph 1016.5mb 48f 47f
7:18 7 11 mph 1016.5mb 48f 47f
7:12 8 10 mph 1016.4mb 48f 47f
7:06 5 7 mph 1016.3mb 48f 47f
7:00 5 6 mph 1016.3mb 48f 47f
6:36 2 5 mph 1016mb 48f 47f
6:30 2 6 mph 1016.1mb 48f 47f
6:24 5 9 mph 1016.1mb 48f 47f
6:18 1 3 mph 1016mb 48f 48f
6:12 1 3 mph 1016.3mb 48f 47f
6:06 1 5 mph 1016.3mb 48f 48f
6:00 2 7 mph 1016.3mb 48f 47f
5:36 2 5 mph 1016.4mb 48f 48f
5:30 5
mph
1016.2mb 48f 48f
5:24  -  6 mph 1016.4mb 48f 48f
5:18 6 7 mph 1016.4mb 48f 48f
5:12 5 6 mph 1016.4mb 48f 48f
5:06 6 9 mph 1016.4mb 48f 48f
5:00 3 6 mph 1016.4mb 48f 48f
4:36 3 5 mph 1016.4mb 48f 47f
4:30 1 3 mph 1016.2mb 48f 48f
4:24  -  1 mph 1016.4mb 48f 48f
4:18 1 3 mph 1016.5mb 48f 48f
4:12 3 5 mph 1016.6mb 48f 48f
4:06 3
mph
1016.9mb 48f 48f
4:00 1 3 mph 1016.8mb 48f 47f
3:36  -  1 mph 1017.2mb 48f 48f
3:30 1 3 mph 1017.2mb 48f 48f
3:24 3 5 mph 1017.4mb 48f 47f
3:18 2 5 mph 1017.3mb 48f 47f
3:12 3 6 mph 1017.3mb 48f 47f
3:06 5 6 mph 1017.2mb 48f 47f
3:00 2 5 mph 1017.1mb 48f 47f
2:36 2 5 mph 1017.4mb 48f 47f
2:30 5
mph
1017.2mb 48f 47f
2:24 5 6 mph 1017.2mb 48f 47f
2:18 3 6 mph 1017.2mb 48f 47f
2:12 2 3 mph 1017.1mb 48f 47f
2:06 3 5 mph 1017.2mb 48f 47f
2:00 5 6 mph 1017.4mb 48f 47f
1:36  -  2 mph 1017.2mb 48f 48f
1:30 1 2 mph 1017.2mb 48f 48f
1:24 1 2 mph 1017.2mb 48f 48f
1:18 1 3 mph 1017.2mb 48f 48f
1:12 3 5 mph 1017.1mb 48f 48f
1:06 2 3 mph 1017mb 48f 48f
1:00 1 2 mph 1016.9mb 48f 48f
12:36 5 6 mph 1017mb 48f 48f
12:30 2 3 mph 1017mb 48f 48f
12:24 1 2 mph 1017mb 48f 48f
12:18  -  1 mph 1017mb 48f 48f
12:12  -  1 mph 1017mb 48f 48f
12:06  -  3 mph 1016.9mb 48f 48f
12:00 3 5 mph 1016.9mb 48f 48f
jeu. 02/11 11:54 5 6 mph 1016.9mb 48f 48f
11:48 3 5 mph 1016.9mb 48f 48f
11:36 3 6 mph 1017mb 48f 48f
11:30 5 6 mph 1017.1mb 48f 48f
11:24 6 7 mph 1017mb 48f 48f
11:18 5 8 mph 1016.9mb 48f 48f
11:12 3 8 mph 1017mb 48f 48f
11:06 6 8 mph 1017mb 48f 48f
11:00 5 7 mph 1017mb 48f 48f
10:54 5 10 mph 1017.1mb 48f 48f
10:48 6 9 mph 1017.2mb 48f 48f
10:36 6 7 mph 1017.1mb 48f 48f
10:30 5 7 mph 1017mb 48f 48f
10:24 6 7 mph 1017.1mb 48f 47f
10:18 3 6 mph 1016.9mb 48f 48f
10:12 5 6 mph 1017mb 48f 48f
10:06 5 6 mph 1016.9mb 48f 48f
10:00 2 7 mph 1017mb 48f 48f
9:54 6 7 mph 1017.2mb 48f 48f
9:48 7 10 mph 1017.1mb 48f 48f
9:36 3 8 mph 1017.2mb 48f 47f
9:30 6 9 mph 1017.3mb 48f 47f
9:24 6 9 mph - - -
9:18 6 9 mph 1017.4mb 48f 47f
9:12 6 7 mph 1017.3mb 48f 47f
9:06 6 8 mph 1017.3mb 48f 47f
9:00 3 7 mph - - -
8:54 6 7 mph 1017.4mb 48f 47f
8:48 3 7 mph 1017.4mb 48f 47f
8:36 6 8 mph 1017.4mb 48f 47f
8:30 6 8 mph 1017.4mb 48f 47f
8:24 6 8 mph 1017.5mb 48f 47f
8:18 6 8 mph 1017.5mb 48f 47f
8:12 5 6 mph 1017.5mb 48f 47f
8:06 5 7 mph 1017.6mb 48f 47f
8:00 6 8 mph 1017.7mb 48f 47f
7:54 6 8 mph 1017.8mb 48f 47f
7:48 6 8 mph 1017.8mb 48f 47f
7:36 2 6 mph 1017.9mb 48f 47f
7:30 3 7 mph 1018mb 48f 47f
7:24 6 7 mph 1018.2mb 48f 47f
7:18 6 8 mph 1018mb 48f 47f
7:12 5 6 mph 1018mb 48f 47f
7:06 3 5 mph 1017.9mb 48f 47f
7:00 3 5 mph 1017.9mb 48f 47f
6:54  -  5 mph 1017.9mb 48f 47f
6:48 2 3 mph 1018.1mb 48f 47f
6:36  -  mph 1018.3mb 48f 47f
6:30  -  mph 1018.4mb 48f 47f
6:24  -  mph 1018.4mb 48f 47f
6:18  -  mph 1018.4mb 48f 47f
6:12  -  mph 1018.4mb 48f 47f
6:06  -  mph 1018.5mb 48f 47f
6:00  -  mph 1018.5mb 48f 47f
5:54  -  mph 1018.5mb 48f 47f
5:48  -  mph 1018.4mb 48f 47f
5:36  -  mph - 48f 48f
5:30  -  mph - 48f 48f
5:24  -  mph - 48f 48f
5:18  -  mph - 48f 48f
5:12  -  mph - 48f 48f
5:06  -  mph - 48f 48f
5:00  -  mph - 48f 48f
4:54  -  mph - 48f 48f
4:48  -  mph - 48f 48f
4:36  -  mph 1018.7mb 48f 48f
4:30  -  mph 1018.8mb 48f 49f
4:24  -  mph 1018.7mb 48f 48f
4:18  -  mph 1018.6mb 48f 49f
4:12  -  mph 1018.8mb 48f 48f
4:06  -  mph 1018.9mb 48f 49f
4:00  -  mph 1019mb 48f 48f
3:54  -  mph 1019mb 48f 49f
3:48  -  mph 1019mb 48f 49f
3:36 1 2 mph 1019.1mb 48f 49f
3:30  -  3 mph 1019.1mb 48f 49f
3:24 1 2 mph 1019.2mb 48f 49f
3:18 1 2 mph 1019.1mb 48f 49f
3:12  -  1 mph 1019.2mb 48f 49f
3:06  -  1 mph 1019.3mb 48f 49f
3:00  -  3 mph 1019.2mb 48f 48f
2:54 2 5 mph 1019.3mb 48f 49f
2:48 1 5 mph 1019.3mb 48f 49f
2:36 3 5 mph 1019.4mb 48f 49f
2:30 3 5 mph 1019.4mb 48f 49f
2:24 2 5 mph 1019.3mb 48f 48f
2:18 3 5 mph 1019.3mb 48f 48f
2:12 3 5 mph 1019.4mb 48f 48f
2:06 5 6 mph 1019.4mb 48f 48f
2:00 2 6 mph 1019.4mb 48f 48f
1:36 2 3 mph - 48f -
1:30 2 5 mph - 48f -
1:24 2 3 mph - 48f -
1:18 2 5 mph - 48f -
1:12 3 6 mph - 48f -
1:06 3 6 mph - 48f -
1:00 5 6 mph - 48f -
12:54 3 6 mph - 48f -
12:48 5 7 mph - 48f -
12:36 7 8 mph 1019.9mb 48f 49f
12:30 6 8 mph 1020mb 48f 49f
12:24 7 9 mph 1020.1mb 48f 48f
12:18 8 9 mph 1020.1mb 48f 48f
12:12 8
mph
1020.1mb 48f 48f
12:06 7 8 mph 1020.3mb 48f 49f
12:00 7 9 mph 1020.4mb 48f 49f
11:54 7 8 mph 1020.5mb 48f 49f
11:48 2 5 mph 1020.6mb 48f 49f
11:36 5 6 mph 1020.6mb 48f 49f
11:30 3 5 mph 1020.7mb 48f 48f
11:24 2 5 mph 1020.7mb 48f 48f
11:18 3 5 mph 1020.8mb 48f 48f
11:12 5 6 mph 1020.8mb 48f 48f
11:06 6 7 mph 1021mb 48f 48f
11:00 6
mph
1021.1mb 48f 48f
10:54 5 6 mph 1021.2mb 48f 48f
10:48 5 6 mph 1021.2mb 48f 48f
10:36 5 6 mph 1021.4mb 48f 48f
10:30 5 6 mph 1021.5mb 48f 48f
10:24 2 3 mph 1021.6mb 48f 48f
10:18 2 3 mph 1021.6mb 48f 47f
10:12 3
mph
1021.6mb 48f 47f
10:06 2
mph
1021.6mb 48f 47f
10:00 2 3 mph 1021.8mb 48f 47f
9:54 3
mph
1021.9mb 48f 47f
9:48 3 5 mph 1021.9mb 48f 47f
9:36 3
mph
1022mb 48f 47f
9:30 2 3 mph 1022.1mb 48f 46f
9:24 2
mph
1022.2mb 48f 46f
9:18 2 3 mph 1022.2mb 48f 46f
9:12 2 3 mph 1022.1mb 48f 46f
9:06 2 3 mph 1022.1mb 48f 46f
9:00 2
mph
1022mb 48f 46f
8:54 1 2 mph 1022mb 48f 46f
8:48  -  1 mph 1022.1mb 48f 46f
8:36  -  2 mph 1022.1mb 48f 46f
8:30 1 2 mph 1022.1mb 48f 46f
8:24 1 2 mph 1022.1mb 48f 46f
8:18  -  1 mph 1022mb 48f 46f
8:12 1 2 mph 1021.9mb 48f 46f
8:06 2
mph
1022mb 48f 45f
8:00  -  1 mph 1022mb 48f 46f
7:54  -  1 mph 1022.1mb 48f 45f
7:48 2
mph
1022.2mb 48f 45f
7:36 1
mph
1022.1mb 48f 45f
7:30  -  1 mph 1022.1mb 48f 46f
7:24  -  1 mph 1022.2mb 48f 46f
7:18  -  2 mph 1022.3mb 48f 45f
7:12 2
mph
1022.3mb 48f 45f
7:06 2
mph
1022.3mb 48f 45f
7:00 1 2 mph 1022.4mb 48f 45f
6:54 2
mph
1022.4mb 48f 45f
6:48 2 3 mph 1022.4mb 48f 45f
6:36 1 2 mph 1022.5mb 48f 45f
6:30 2 3 mph 1022.6mb 48f 45f
6:24 2
mph
1022.8mb 48f 45f
6:18 1 5 mph 1022.7mb 48f 45f
6:12 3 5 mph 1022.8mb 48f 45f
6:06 2
mph
1022.8mb 48f 45f
6:00  -  2 mph 1022.9mb 48f 45f
5:54  -  2 mph 1023mb 48f 45f
5:48 2
mph
1023.1mb 48f 45f
5:36 1 2 mph 1023.2mb 48f 45f
5:30 1 2 mph 1023.4mb 48f 45f
5:24  -  2 mph 1023.3mb 48f 45f
5:18 2 5 mph 1023.4mb 48f 45f
5:12 1 2 mph 1023.5mb 48f 45f
5:06 3
mph
1023.5mb 48f 45f
5:00 1 2 mph 1023.4mb 48f 45f
4:54 1 3 mph 1023.4mb 48f 44f
4:48 3 5 mph 1023.5mb 48f 44f
4:36 3 6 mph 1023.6mb 48f 44f
4:30 3
mph
1023.6mb 48f 44f
4:24 3
mph
1023.6mb 48f 44f
4:18 2 3 mph 1023.7mb 48f 44f
4:12 2 3 mph 1023.7mb 48f 44f
4:06 2 3 mph 1023.8mb 48f 44f
4:00 2 3 mph 1023.8mb 48f 44f
3:54 2 3 mph 1023.9mb 48f 44f
3:48 2 3 mph 1023.8mb 48f 44f
3:36 3
mph
1024mb 48f 43f
3:30 2 3 mph 1024mb 48f 43f
3:24 2
mph
1024mb 48f 43f
3:18 3
mph
1024mb 48f 43f
3:12  -  2 mph 1024mb 48f 44f
3:06  -  1 mph 1024.1mb 48f 44f
3:00 2
mph
1024.2mb 48f 44f
2:54 1 3 mph 1024.2mb 48f 44f
2:48 3 6 mph 1024.1mb 48f 43f
2:36 2 3 mph - 48f 43f
2:30 1 3 mph - 48f 44f
2:24 2 3 mph - 48f 44f
2:18 2 5 mph - 48f 44f
2:12  -  2 mph - 48f 44f
2:06 2 5 mph - 48f 44f
2:00 3 6 mph - 48f 44f
1:54 5 7 mph - 48f 45f
1:48 6 7 mph - 48f 45f
1:36 3 5 mph 1024.4mb 48f 45f
1:30 2 3 mph 1024.4mb 48f 44f
1:24 2 3 mph 1024.5mb 48f 44f
1:18 2 3 mph 1024.6mb 48f 45f
1:12 3 5 mph 1024.6mb 48f 45f
1:06 3 5 mph 1024.6mb 48f 46f
1:00 1 3 mph 1024.7mb 48f 46f
12:54  -  1 mph 1024.7mb 48f 46f
12:48  -  2 mph 1024.8mb 48f 46f
12:36 1 2 mph 1025mb 48f 47f
12:30 1 2 mph 1025.1mb 48f 47f
12:24  -  3 mph 1025.2mb 48f 47f
12:18 3 5 mph 1025.2mb 48f 47f
12:12 2 3 mph 1025.4mb 48f 46f
12:06 2 3 mph 1025.5mb 48f 47f
12:00 2 3 mph 1025.6mb 48f 47f
mer. 02/10 11:54 1 3 mph 1025.8mb 48f 47f
11:48 3
mph
1025.8mb 48f 48f
11:36 1
mph
1026mb 48f 48f
11:30 2 3 mph 1026.1mb 48f 48f
11:24 2
mph
1026.1mb 48f 49f
11:18 3
mph
1026.1mb 48f 49f
11:12 3 5 mph 1026.1mb 48f 49f
11:06 3 6 mph 1026.1mb 48f 49f
11:00 3 5 mph 1026mb 48f 49f
10:54 2 3 mph 1026mb 48f 49f
10:48 3 6 mph 1026.1mb 48f 48f
10:36 2 3 mph 1025.8mb 48f 48f
10:30 3 5 mph 1025.8mb 48f 48f
10:24 3 6 mph 1025.9mb 48f 48f
10:18 3 5 mph 1025.9mb 48f 48f
10:12 3 5 mph 1026mb 48f 48f
10:06 3 6 mph 1026mb 48f 48f
10:00 5
mph
1025.9mb 48f 47f
9:54 5 6 mph - - -
9:48 3 5 mph - - -
9:36 5 6 mph 1026.1mb 48f 47f
9:30 6 7 mph 1026.2mb 48f 47f
9:24 6 7 mph 1026.1mb 48f 47f
9:18 6 7 mph 1026.1mb 48f 47f
9:12 5 6 mph 1026.1mb 48f 47f
9:06 6 7 mph 1026.1mb 48f 47f
9:00 7
mph
1026mb 48f 47f
8:54 6 7 mph 1026mb 48f 47f
8:48 6 7 mph 1026mb 48f 47f
8:36 7 8 mph 1026mb 48f 47f
8:30 7 8 mph 1025.9mb 48f 46f
8:24 6 8 mph 1025.8mb 48f 46f
8:18 7 8 mph 1025.8mb 48f 46f
8:12 6 8 mph 1025.8mb 48f 46f
8:06 5 6 mph 1025.7mb 48f 46f
8:00 5 6 mph 1025.7mb 48f 46f
7:54 3 6 mph 1025.6mb 48f 45f
7:48 2 5 mph 1025.5mb 48f 45f
7:36 5 7 mph 1025.2mb 48f 46f
7:30 6 7 mph 1025mb 48f 46f
7:24 6 8 mph 1025mb 48f 46f
7:18 8
mph
1025mb 48f 46f
7:12 7 8 mph 1024.9mb 48f 46f
7:06 5 7 mph 1024.9mb 48f 46f
7:00 3
mph
1024.8mb 48f 47f
6:54 2 6 mph 1024.9mb 48f 47f
6:48 2 5 mph 1024.9mb 48f 47f
6:36 3 6 mph 1024.6mb 48f 47f
6:30 3 6 mph 1024.6mb 48f 47f
6:24 2 5 mph 1024.6mb 48f 47f
6:18 3 5 mph 1024.6mb 48f 47f
6:12 2 5 mph 1024.5mb 48f 47f
6:06 2 5 mph 1024.4mb 48f 47f
6:00 3 7 mph 1024.3mb 48f 48f
5:54 5 6 mph 1024.4mb 48f 48f
5:48 5 6 mph 1024.2mb 48f 48f
5:36 3 5 mph 1024mb 48f 48f
5:30 3 6 mph 1024mb 48f 48f
5:24 3 5 mph 1024mb 48f 49f
5:18  -  3 mph 1023.9mb 48f 49f
5:12 3
mph
1023.8mb 48f 49f
5:06 3
mph
1023.6mb 48f 49f
5:00 2 3 mph 1023.6mb 48f 50f
4:54 3
mph
1023.4mb 48f 50f
4:48 1 3 mph 1023.3mb 48f 49f
4:36 5 6 mph 1023.1mb 48f 50f
4:30 2 3 mph 1023.1mb 48f 50f
4:24 2 3 mph 1023.2mb 48f 50f
4:18 1 2 mph 1023.2mb 48f 49f
4:12 1 3 mph 1023.2mb 48f 49f
4:06 6 8 mph 1023.2mb 48f 49f
4:00 9 10 mph 1023.1mb 48f 48f
3:54 8 10 mph 1023.1mb 48f 48f
3:48 8 10 mph 1022.9mb 48f 49f
3:36 6 7 mph 1022.8mb 48f 49f
3:30 8 9 mph 1022.8mb 48f 49f
3:24 6 7 mph 1022.6mb 48f 48f
3:18 6 8 mph 1022.4mb 48f 48f
3:12 3 5 mph 1022.1mb 48f 49f
3:06 2 3 mph 1022mb 48f 49f
3:00 3 5 mph 1022mb 48f 49f
2:54 2 3 mph 1022mb 48f 49f
2:48 2 3 mph 1021.8mb 48f 49f
2:36 2 3 mph 1021.7mb 48f 49f
2:30 2
mph
1021.5mb 48f 49f
2:24 1 3 mph 1021.4mb 48f 50f
2:18 2 3 mph 1021.5mb 48f 50f
2:12 2
mph
1021.4mb 48f 50f
2:06 2 3 mph 1021.3mb 48f 50f
2:00 3 5 mph 1021.3mb 48f 49f
1:54  -  3 mph 1021.2mb 48f 51f
1:48 2 5 mph 1021.2mb 48f 52f
1:36 3 5 mph 1021.2mb 48f 52f
1:30 2 5 mph 1021.2mb 48f 51f
1:24 3 6 mph 1021.2mb 48f 52f
1:18 1 5 mph 1021.6mb 48f 52f
1:12 3 5 mph 1021.5mb 48f 53f
1:06 2 5 mph 1021.5mb 48f 52f
1:00 2 3 mph 1021.5mb 48f 53f
12:54 3 6 mph 1021.5mb 48f 53f
12:48 2 5 mph 1021.6mb 48f 52f
12:36 5 6 mph 1021.4mb 48f 51f
12:30 3 6 mph 1021.4mb 48f 52f
12:24 2 6 mph 1021.6mb 48f 51f
12:18 3 5 mph 1021.5mb 48f 50f
12:12 3 5 mph 1021.4mb 48f 50f
12:06 3 6 mph 1021.5mb 48f 49f
12:00 5 8 mph 1021.4mb 48f 50f
11:54 8 9 mph 1021.1mb 48f 50f
11:48 9 11 mph 1020.9mb 48f 50f
11:36 7 8 mph 1021.3mb 48f 50f
11:30 6 9 mph 1021.1mb 48f 51f
11:24 6 8 mph 1021.3mb 48f 51f
11:18 6 8 mph 1021.4mb 48f 51f
11:12 7 9 mph 1021.1mb 48f 50f
11:06 6 7 mph 1021mb 48f 50f
11:00 3 6 mph 1020.7mb 48f 50f
10:54 2 3 mph 1020.9mb 48f 50f
10:48  -  1 mph 1020.7mb 48f 51f
10:36 1 2 mph 1020.8mb 48f 50f
10:30 1 6 mph 1020.7mb 48f 49f
10:24 3 6 mph 1020.4mb 48f 49f
10:18 6 7 mph 1020.3mb 48f 49f
10:12 3 5 mph 1020.2mb 48f 48f
10:06 2 5 mph 1020.4mb 48f 48f
10:00 3 5 mph 1020.4mb 48f 48f
9:36 2 3 mph 1019.8mb 48f 47f
9:30 1 2 mph 1020mb 48f 47f
9:24 1 2 mph 1020.2mb 48f 47f
9:18  -  2 mph 1020.2mb 48f 47f
9:12 1 2 mph 1019.9mb 48f 47f
9:06 1 2 mph 1020mb 48f 47f
9:00  -  5 mph 1020.1mb 48f 47f
8:54 3 5 mph 1020mb 48f 47f
8:48 1 6 mph 1020.1mb 48f 47f
8:36 6 10 mph 1019.9mb 48f 47f
8:30 7 10 mph 1019.6mb 48f 47f
8:24 7 9 mph 1019.5mb 48f 47f
8:18  -  5 mph 1019.6mb 48f 46f
8:12 2 6 mph 1019.4mb 48f 46f
8:06 5 6 mph 1019.2mb 48f 46f
8:00 3 5 mph 1018.8mb 48f 46f
7:54 1 7 mph 1018.7mb 48f 46f
7:48 6 8 mph 1019mb 48f 47f
7:36 2 7 mph 1018.9mb 48f 46f
7:30 2 6 mph 1018.8mb 48f 47f
7:24 5 7 mph 1018.4mb 48f 47f
7:18 3 6 mph 1018.2mb 48f 47f
7:12 3 10 mph 1018.1mb 48f 46f
7:06 5 10 mph 1017.7mb 48f 47f
7:00 6 10 mph 1017.8mb 48f 47f
6:54 2 6 mph 1018.3mb 48f 47f
6:48 3 6 mph 1018.3mb 48f 47f
6:36 6 8 mph 1017.5mb 48f 46f
6:30 5 6 mph 1017.6mb 48f 46f
6:24 5 6 mph 1017.9mb 48f 46f
6:18 3 7 mph 1018.2mb 48f 45f
6:12 2 3 mph 1018.2mb 48f 46f
6:06 2 9 mph 1018.1mb 48f 45f
6:00 6 8 mph 1017.8mb 48f 45f
5:54 6 7 mph 1017.8mb 48f 44f
5:48 3 6 mph 1017.7mb 48f 45f
5:36 2 5 mph 1017.9mb 48f 45f
5:30 3 5 mph 1018.2mb 48f 45f
5:24 2 6 mph 1018.5mb 48f 45f
5:18 5 8 mph 1018.5mb 48f 45f
5:12 3 5 mph 1018.6mb 48f 45f
5:06  -  2 mph 1018.4mb 48f 45f
5:00 3 7 mph 1018.1mb 48f 46f
4:54 3 5 mph 1018.1mb 48f 45f
4:48 3 7 mph 1018.3mb 48f 45f
4:36 2 5 mph 1018.2mb 48f 45f
4:30 2 9 mph 1018.2mb 48f 46f
4:24 5 7 mph 1018.4mb 48f 45f
4:18 5 8 mph 1018.4mb 48f 44f
4:12 5 6 mph 1018.2mb 48f 44f
4:06 2 3 mph 1018.1mb 48f 44f
4:00 5 6 mph 1018.1mb 48f 45f
3:54 5 6 mph 1018.2mb 48f 44f
3:48 6 9 mph 1018.5mb 48f 45f
3:36 5 7 mph 1018.2mb 48f 44f
3:30 2 5 mph 1018.3mb 48f 43f
3:24 2 3 mph 1019mb 48f 44f
3:18 2 6 mph 1019.1mb 48f 46f
3:12 6 9 mph 1018.8mb 48f 44f
3:06 5 6 mph 1018.7mb 48f 43f
3:00 3 7 mph 1018.5mb 48f 43f
2:54 8 10 mph 1018.5mb 48f 43f
2:48 6 10 mph 1018.7mb 48f 43f
2:36 3 6 mph 1019.1mb 48f 44f
2:30 6 7 mph 1019mb 48f 43f
2:24 2 8 mph 1019mb 48f 43f
2:18 5 8 mph 1019.1mb 48f 43f
2:12 3 7 mph 1019mb 48f 42f
2:06 2 5 mph 1019mb 48f 43f
2:00 3 6 mph 1019.2mb 48f 43f
1:54 3 5 mph 1019.2mb 48f 43f
1:48 5 6 mph 1019.1mb 48f 43f
1:36 2 6 mph 1019.1mb 48f 43f
1:30 3 5 mph 1019.3mb 48f 43f
1:24 5 6 mph 1019.2mb 48f 44f
1:18 3 8 mph 1019.2mb 48f 44f
1:12 5 10 mph 1019.4mb 48f 44f
1:06 6 7 mph 1019.5mb 48f 44f
1:00 3 7 mph 1019.4mb 48f 44f
12:54 5 6 mph 1019.5mb 48f 44f
12:48 5 7 mph 1019.6mb 48f 44f
12:36 6 10 mph 1019.5mb 48f 44f
12:30 8 10 mph 1019.6mb 48f 44f
12:24 5 8 mph 1019.5mb 48f 44f
12:18 8 10 mph 1019.6mb 48f 44f
12:12 6 8 mph 1019.5mb 48f 43f
12:06 3 8 mph 1019.4mb 48f 44f
12:00 2 6 mph 1019.5mb 48f 44f
mar. 02/09 11:54 3 7 mph 1019.5mb 48f 44f
11:48 5 6 mph 1019.4mb 48f 44f
11:36 3 6 mph 1019.4mb 48f 43f
11:30 7 9 mph 1019.5mb 48f 43f
11:24 7 8 mph 1019.3mb 48f 43f
11:18 6 8 mph 1019.4mb 48f 43f
11:12 6 7 mph 1019.4mb 48f 43f
11:06 6
mph
1019.3mb 48f 43f
11:00 3 6 mph 1019.1mb 48f 42f
10:54 6
mph
1019.3mb 48f 42f
10:48 5 6 mph 1019.2mb 48f 43f
10:36 5 6 mph 1019.1mb 48f 43f
10:30 6 9 mph 1019.3mb 48f 43f
10:24 7 9 mph 1019.2mb 48f 43f
10:18 8 10 mph 1019.1mb 48f 43f
10:12 3 6 mph 1018.9mb 48f 42f
10:06 5 7 mph 1019mb 48f 43f
10:00 6 7 mph 1019mb 48f 43f
9:54 6 7 mph 1019.1mb 48f 43f
9:48 5 6 mph 1019mb 48f 43f
9:36 3 5 mph 1019.2mb 48f 43f
9:30 2 5 mph 1019.1mb 48f 44f
9:24 3 5 mph 1019.1mb 48f 44f
9:18 2 6 mph 1019.1mb 48f 44f
9:12 5 6 mph - - -
9:06  -  3 mph 1018.9mb 48f 44f
9:00 3 6 mph 1019.1mb 48f 44f
8:54 2 6 mph 1019.2mb 48f 45f
8:48  -  2 mph - - -
8:36 5 7 mph 1019.3mb 48f 46f
8:30 6 8 mph 1019.3mb 48f 45f
8:24 2 3 mph 1019.1mb 48f 45f
8:18 5 6 mph 1019mb 48f 45f
8:12 3 5 mph 1018.8mb 48f 44f
8:06 2 5 mph 1018.9mb 48f 45f
8:00 1 3 mph 1019.1mb 48f 46f
7:54 2 3 mph 1019.3mb 48f 46f
7:48 3 7 mph 1019.2mb 48f 46f
7:36 6 7 mph 1019.1mb 48f 46f
7:30 3 6 mph 1019.2mb 48f 45f
7:24 2 5 mph 1019.4mb 48f 45f
7:18 2 6 mph 1019.7mb 48f 46f
7:12 1 6 mph 1019.6mb 48f 46f
7:06 2 5 mph 1019.6mb 48f 46f
7:00  -  1 mph 1019.6mb 48f 46f
6:54 2 3 mph 1019.6mb 48f 46f
6:48 2 3 mph 1019.6mb 48f 46f
6:36 3 5 mph 1019.6mb 48f 46f
6:30 2
mph
1019.6mb 48f 47f
6:24  -  2 mph 1019.5mb 48f 46f
6:18  -  2 mph 1019.6mb 48f 46f
6:12 1 5 mph 1019.7mb 48f 46f
6:06 3 5 mph 1019.6mb 48f 47f
6:00  -  5 mph 1019.8mb 48f 47f
5:54 1 5 mph 1019.8mb 48f 47f
5:48 2 3 mph 1019.8mb 48f 47f
5:36 2 5 mph 1019.9mb 48f 47f
5:30 2 3 mph 1019.9mb 48f 47f
5:24 1 5 mph 1020mb 48f 47f
5:18 5
mph
1019.9mb 48f 47f
5:12 3 8 mph 1020mb 48f 47f
5:06 6 7 mph 1020.1mb 48f 48f
5:00 3 5 mph 1020.2mb 48f 48f
4:36 3
mph
1020.2mb - 48f
4:30 2
mph
1020.3mb - 48f
4:24 2 6 mph 1020.1mb - 48f
4:18 5
mph
1020mb - 49f
4:12 5 6 mph 1020mb - 48f
4:06 5 6 mph 1020mb - 49f
4:00 6 7 mph 1020mb - 49f
3:54 6 7 mph 1020mb - 49f
3:48 5 6 mph 1020.1mb - 50f
3:36 5
mph
1020.3mb 48f 49f
3:30 3 5 mph 1020.2mb 48f 49f
3:24 3 5 mph 1020.2mb 48f 49f
3:18 5
mph
1020.1mb 48f 49f
3:12 5
mph
1020.2mb 48f 49f
3:06 5
mph
1020.2mb 48f 49f
3:00 3 5 mph 1020.2mb 48f 50f
2:54 3 5 mph 1020.2mb 48f 51f
2:48 3 5 mph 1020.2mb 48f 51f
2:36 2 3 mph 1020.4mb 48f 53f
2:30 2
mph
1020.5mb 48f 51f
2:24 2 3 mph 1020.4mb 48f 53f
2:18 2
mph
1020.5mb 48f 51f
2:12 1 2 mph 1020.6mb 48f 50f
2:06 1 2 mph 1020.6mb 48f 50f
2:00 2 3 mph 1020.7mb 48f 50f
1:54 3 5 mph 1020.7mb 48f 52f
1:48 2
mph
1020.7mb 48f 53f
1:36 2 3 mph 1020.7mb 48f 52f
1:30 2 3 mph 1020.7mb 48f 52f
1:24 2 3 mph 1020.8mb 48f 51f
1:18 2 3 mph 1020.8mb 48f 50f
1:12 3 5 mph 1020.9mb 48f 51f
1:06 3 5 mph 1020.9mb 48f 50f
1:00 3 5 mph 1021.1mb 48f 50f
12:54 3 5 mph 1021.1mb 48f 50f
12:48 5 6 mph 1021.1mb 48f 50f
12:36 5 6 mph 1021.2mb 48f 49f
12:30 5 6 mph 1021.2mb 48f 49f
12:24 3 5 mph 1021.3mb 48f 49f
12:18 2 5 mph 1021.4mb 48f 50f
12:12 5 6 mph 1021.5mb 48f 49f
12:06 5 6 mph 1021.6mb 48f 49f
12:00 3 6 mph 1021.6mb 48f 49f
11:54 5 6 mph 1021.8mb 48f 49f
11:48 5 6 mph 1021.7mb 48f 49f
11:36 6 7 mph 1021.9mb 48f 49f
11:30 5 6 mph 1022mb 48f 49f
11:24 6 7 mph 1022mb 48f 50f
11:18 2 3 mph 1022.1mb 48f 51f
11:12 2 3 mph 1022.3mb 48f 51f
11:06 2
mph
1022.4mb 48f 51f
11:00 2 3 mph 1022.4mb 48f 51f
10:36 2 3 mph 1022.2mb 48f 51f
10:30 3
mph
1022.4mb 48f 50f
10:24 1 2 mph 1022.5mb 48f 51f
10:18 2
mph
1022.5mb 48f 50f
10:12 1 2 mph 1022.5mb 48f 51f
10:06 1 2 mph 1022.7mb 48f 52f
10:00  -  1 mph 1022.6mb 48f 51f
9:54 1
mph
1022.6mb 48f 49f
9:48 1 2 mph 1022.6mb 48f 48f
9:36  -  1 mph 1022.6mb 48f 50f
9:30 1 2 mph 1022.6mb 48f 48f
9:24 1 2 mph 1022.6mb 48f 48f
9:18 2
mph
1022.5mb 48f 47f
9:12 2 3 mph 1022.5mb 48f 46f
9:06 2 3 mph 1022.5mb 48f 46f
9:00 3
mph
1022.5mb 48f 44f
8:54 3 5 mph 1022.6mb 48f 44f
8:48 3 6 mph 1022.5mb 48f 43f
8:36 5 6 mph 1022.7mb 48f 42f
8:30 6 8 mph 1022.6mb 48f 41f
8:24 7 9 mph 1022.7mb 48f 41f